createdAt,value
2019-06-07T00:00:54.119Z,41.81
2019-06-07T00:05:57.605Z,41.90
2019-06-07T00:11:01.047Z,42.18
2019-06-07T00:16:04.740Z,42.41
2019-06-07T00:21:08.921Z,42.65
2019-06-07T00:26:17.335Z,42.64
2019-06-07T00:31:24.148Z,42.63
2019-06-07T00:36:23.848Z,42.72
2019-06-07T00:41:27.307Z,42.76
2019-06-07T00:46:30.771Z,42.86
2019-06-07T00:51:49.429Z,42.77
2019-06-07T00:56:39.422Z,42.87
2019-06-07T01:01:42.892Z,42.99
2019-06-07T01:06:46.353Z,43.01
2019-06-07T01:11:49.811Z,43.17
2019-06-07T01:17:01.306Z,43.06
2019-06-07T01:21:58.465Z,42.92
2019-06-07T01:27:01.931Z,42.85
2019-06-07T01:32:05.400Z,42.91
2019-06-07T01:37:08.861Z,43.01
2019-06-07T01:42:12.322Z,43.11
2019-06-07T01:47:17.691Z,43.23
2019-06-07T01:52:23.528Z,43.41
2019-06-07T01:57:39.761Z,43.24
2019-06-07T02:02:31.932Z,43.17
2019-06-07T02:07:35.924Z,43.04
2019-06-07T02:12:43.246Z,43.05
2019-06-07T02:17:44.572Z,42.95
2019-06-07T02:22:48.264Z,42.92
2019-06-07T02:27:51.721Z,42.92
2019-06-07T02:32:55.184Z,42.70
2019-06-07T02:37:58.644Z,42.49
2019-06-07T02:43:02.101Z,42.32
2019-06-07T02:48:05.566Z,42.17
2019-06-07T02:53:09.029Z,42.07
2019-06-07T02:58:12.498Z,42.02
2019-06-07T03:03:17.148Z,42.11
2019-06-07T03:08:20.619Z,42.12
2019-06-07T03:13:24.154Z,42.34
2019-06-07T03:18:45.688Z,42.27
2019-06-07T03:23:50.668Z,42.35
2019-06-07T03:28:55.706Z,42.48
2019-06-07T03:33:59.191Z,42.59
2019-06-07T03:39:02.876Z,42.49
2019-06-07T03:44:06.276Z,42.53
2019-06-07T03:49:09.758Z,42.71
2019-06-07T03:54:13.994Z,42.74
2019-06-07T03:59:17.462Z,42.88
2019-06-07T04:04:20.926Z,42.53
2019-06-07T04:09:24.392Z,42.64
2019-06-07T04:14:29.717Z,43.05
2019-06-07T04:19:38.259Z,43.27
2019-06-07T04:24:41.861Z,43.45
2019-06-07T04:30:05.690Z,43.55
2019-06-07T04:34:48.977Z,43.68
2019-06-07T04:39:53.839Z,43.93
2019-06-07T04:44:59.885Z,44.00
2019-06-07T04:50:04.893Z,44.07
2019-06-07T04:55:08.438Z,44.20
2019-06-07T05:00:46.189Z,44.09
2019-06-07T05:05:17.328Z,44.42
2019-06-07T05:10:20.792Z,44.89
2019-06-07T05:15:24.385Z,44.88
2019-06-07T05:20:27.856Z,45.13
2019-06-07T05:25:33.217Z,45.27
2019-06-07T05:35:43.800Z,45.56
2019-06-07T05:40:48.655Z,45.33
2019-06-07T05:45:52.486Z,45.46
2019-06-07T05:50:57.514Z,45.67
2019-06-07T05:56:01.210Z,45.65
2019-06-07T06:01:41.671Z,45.58
2019-06-07T06:06:09.844Z,45.54
2019-06-07T06:11:13.310Z,45.59
2019-06-07T06:16:16.848Z,45.43
2019-06-07T06:21:20.687Z,45.07
2019-06-07T06:26:24.362Z,44.76
2019-06-07T06:31:27.828Z,44.70
2019-06-07T06:36:31.294Z,44.18
2019-06-07T06:41:46.083Z,42.63
2019-06-07T06:46:44.738Z,42.80
2019-06-07T06:51:50.046Z,43.31
2019-06-07T06:56:52.694Z,42.87
2019-06-07T07:01:55.586Z,42.55
2019-06-07T07:06:59.122Z,42.70
2019-06-07T07:12:11.992Z,42.38
2019-06-07T07:17:07.790Z,43.16
2019-06-07T07:22:11.248Z,43.17
2019-06-07T07:27:14.718Z,43.53
2019-06-07T07:32:18.180Z,43.76
2019-06-07T07:37:21.656Z,43.49
2019-06-07T07:42:25.195Z,43.08
2019-06-07T07:47:28.675Z,43.81
2019-06-07T07:52:32.157Z,43.92
2019-06-07T07:57:35.641Z,43.84
2019-06-07T08:02:39.127Z,43.86
2019-06-07T08:07:42.653Z,43.68
2019-06-07T08:13:07.390Z,43.57
2019-06-07T08:17:59.653Z,43.48
2019-06-07T08:22:59.732Z,43.66
2019-06-07T08:28:02.203Z,43.36
2019-06-07T08:33:24.879Z,43.03
2019-06-07T08:38:25.796Z,43.59
2019-06-07T08:43:20.796Z,43.25
2019-06-07T08:48:27.921Z,42.75
2019-06-07T08:53:26.511Z,42.27
2019-06-07T08:58:29.991Z,42.59
2019-06-07T09:03:33.479Z,42.86
2019-06-07T09:08:37.029Z,42.69
2019-06-07T09:13:40.513Z,42.48
2019-06-07T09:18:45.136Z,42.63
2019-06-07T09:23:48.754Z,42.95
2019-06-07T09:28:53.273Z,42.79
2019-06-07T09:33:59.811Z,42.74
2019-06-07T09:39:09.566Z,42.85
2019-06-07T09:44:23.152Z,42.49
2019-06-07T09:49:28.628Z,42.34
2019-06-07T09:59:24.342Z,42.04
2019-06-07T10:04:31.401Z,41.96
2019-06-07T10:14:39.363Z,42.17
2019-06-07T10:19:42.845Z,42.58
2019-06-07T10:24:46.375Z,43.07
2019-06-07T10:29:49.876Z,42.90
2019-06-07T10:34:53.353Z,42.90
2019-06-07T10:39:56.946Z,42.58
2019-06-07T10:50:06.063Z,43.22
2019-06-07T12:08:54.059Z,42.51
2019-06-07T12:13:57.688Z,42.95
2019-06-07T12:19:01.145Z,43.03
2019-06-07T12:24:05.222Z,42.95
2019-06-07T12:29:08.673Z,43.08
2019-06-07T12:34:13.246Z,43.00
2019-06-07T12:39:17.989Z,43.07
2019-06-07T12:44:22.729Z,42.93
2019-06-07T12:49:26.373Z,42.80
2019-06-07T12:54:29.852Z,42.78
2019-06-07T12:59:33.307Z,42.85
2019-06-07T13:04:36.772Z,42.91
2019-06-07T13:09:40.234Z,42.86
2019-06-07T13:14:43.691Z,42.86
2019-06-07T13:19:47.142Z,42.97
2019-06-07T13:24:50.599Z,42.98
2019-06-07T13:29:54.219Z,43.26
2019-06-07T13:34:57.686Z,43.23
2019-06-07T13:40:01.194Z,43.38
2019-06-07T13:45:07.248Z,43.39
2019-06-07T13:50:11.330Z,43.33
2019-06-07T13:55:15.422Z,43.44
2019-06-07T14:00:22.544Z,43.48
2019-06-07T14:05:27.115Z,43.50
2019-06-07T14:10:30.856Z,43.57
2019-06-07T14:15:34.575Z,43.52
2019-06-07T14:20:38.045Z,43.62
2019-06-07T14:25:41.504Z,43.69
2019-06-07T14:30:44.973Z,43.83
2019-06-07T14:35:48.432Z,43.79
2019-06-07T14:40:51.887Z,43.74
2019-06-07T14:45:55.347Z,43.83
2019-06-07T14:50:58.869Z,43.97
2019-06-07T14:56:02.332Z,44.14
2019-06-07T15:01:05.806Z,44.49
2019-06-07T15:06:09.279Z,44.47
2019-06-07T15:11:12.730Z,44.48
2019-06-07T15:16:16.186Z,44.59
2019-06-07T15:21:19.656Z,44.57
2019-06-07T15:26:23.115Z,44.56
2019-06-07T15:31:27.818Z,44.50
2019-06-07T15:36:32.602Z,44.54
2019-06-07T15:41:37.328Z,44.79
2019-06-07T15:46:41.111Z,44.92
2019-06-07T15:51:44.633Z,44.91
2019-06-07T15:56:48.080Z,44.89
2019-06-07T16:01:51.551Z,44.70
2019-06-07T16:06:54.995Z,44.67
2019-06-07T16:11:58.464Z,44.58
2019-06-07T16:17:01.927Z,44.66
2019-06-07T16:22:05.457Z,44.61
2019-06-07T16:27:08.922Z,44.58
2019-06-07T16:32:12.387Z,44.73
2019-06-07T16:37:15.852Z,44.80
2019-06-07T16:42:19.325Z,44.81
2019-06-07T16:47:22.773Z,44.95
2019-06-07T16:52:26.235Z,44.88
2019-06-07T16:57:29.697Z,45.01
2019-06-07T17:02:33.728Z,45.11
2019-06-07T17:07:38.320Z,45.20
2019-06-07T17:12:42.876Z,45.26
2019-06-07T17:17:47.079Z,45.30
2019-06-07T17:22:50.637Z,45.26
2019-06-07T17:27:54.086Z,45.36
2019-06-07T17:32:59.464Z,45.29
2019-06-07T17:38:02.734Z,45.22
2019-06-07T17:43:06.189Z,45.04
2019-06-07T17:48:09.667Z,44.97
2019-06-07T17:53:13.114Z,44.86
2019-06-07T17:58:16.572Z,44.83
2019-06-07T18:03:20.268Z,44.80
2019-06-07T18:08:25.138Z,44.79
2019-06-07T18:13:28.602Z,44.77
2019-06-07T18:18:32.054Z,44.78
2019-06-07T18:23:35.514Z,44.76
2019-06-07T18:28:38.973Z,44.82
2019-06-07T18:33:43.589Z,44.85
2019-06-07T18:38:47.043Z,44.84
2019-06-07T18:43:51.153Z,44.94
2019-06-07T18:48:54.804Z,44.79
2019-06-07T18:53:58.275Z,44.75
2019-06-07T18:59:01.729Z,44.77
2019-06-07T19:04:05.355Z,44.86
2019-06-07T19:09:09.383Z,44.90
2019-06-07T19:14:12.842Z,45.00
2019-06-07T19:19:16.300Z,45.04
2019-06-07T19:24:19.766Z,45.37
2019-06-07T19:29:23.232Z,45.26
2019-06-07T19:34:26.689Z,45.41
2019-06-07T19:39:30.151Z,45.40
2019-06-07T19:44:33.603Z,45.44
2019-06-07T19:49:37.064Z,45.38
2019-06-07T19:54:40.531Z,45.38
2019-06-07T19:59:44.012Z,45.50
2019-06-07T20:04:47.473Z,45.42
2019-06-07T20:09:50.927Z,45.45
2019-06-07T20:15:17.511Z,45.34
2019-06-07T20:20:00.503Z,45.39
2019-06-07T20:25:05.144Z,45.54
2019-06-07T20:30:11.644Z,45.50
2019-06-07T20:35:15.350Z,45.40
2019-06-07T20:40:24.351Z,45.51
2019-06-07T20:45:33.181Z,45.61
2019-06-07T20:50:29.525Z,45.49
2019-06-07T20:55:32.984Z,45.49
2019-06-07T21:00:36.444Z,45.63
2019-06-07T21:05:39.902Z,45.63
2019-06-07T21:10:43.374Z,45.70
2019-06-07T21:15:49.127Z,45.73
2019-06-07T21:20:51.999Z,45.79
2019-06-07T21:25:55.451Z,45.87
2019-06-07T21:30:58.913Z,45.84
2019-06-07T21:36:04.397Z,45.83
2019-06-07T21:41:08.227Z,45.79
2019-06-07T21:46:19.611Z,45.70
2019-06-07T21:51:16.988Z,45.71
2019-06-07T21:56:20.450Z,45.79
2019-06-07T22:01:25.461Z,45.68
2019-06-07T22:06:28.914Z,45.76
2019-06-07T22:11:32.370Z,45.93
2019-06-07T22:16:35.827Z,46.05
2019-06-07T22:21:39.291Z,45.96
2019-06-07T22:26:42.743Z,45.91
2019-06-07T22:31:46.207Z,46.08
2019-06-07T22:36:49.669Z,46.09
2019-06-07T22:41:53.128Z,46.11
2019-06-07T22:46:56.590Z,46.14
2019-06-07T22:52:08.690Z,46.38
2019-06-07T22:57:07.883Z,46.49
2019-06-07T23:02:12.544Z,46.51
2019-06-07T23:07:17.123Z,46.51
2019-06-07T23:12:20.684Z,46.38
2019-06-07T23:17:24.154Z,45.96
2019-06-07T23:22:27.609Z,45.70
2019-06-07T23:27:31.066Z,45.32
2019-06-07T23:32:34.533Z,44.98
2019-06-07T23:37:38.050Z,44.72
2019-06-07T23:42:41.561Z,44.50
2019-06-07T23:47:45.028Z,44.42
2019-06-07T23:52:49.260Z,43.97
2019-06-07T23:57:52.720Z,43.55
